< Typhoon 196727 1967 Season Typhoon 196729 >
Typhoon 196728 (WANDA)
General InformationTrack Information on Google Maps || Disaster Info.ResourceGoogle EarthGE AnimationAtom FeedGeoJSON
Detalied Best Track (Time Zone = UTC)
Year Month Day Hour Lat. Long. Pressure (hPa) Wind (kt) Class Image Chart
1967 9 16 00 17.0 145.1 1004 0 2 -- Chart
1967 9 16 06 18.0 145.1 1002 0 2 -- Chart
1967 9 16 12 18.9 145.6 1002 0 2 -- Chart
1967 9 16 18 19.5 145.9 1002 0 2 -- Chart
1967 9 17 00 20.0 146.0 1000 0 2 -- Chart
1967 9 17 06 20.9 145.6 998 0 2 -- Chart
1967 9 17 12 21.8 145.1 998 0 2 -- Chart
1967 9 17 18 22.6 145.3 996 0 2 -- Chart
1967 9 18 00 23.5 145.6 996 0 2 -- Chart
1967 9 18 06 23.7 145.4 992 0 9 -- Chart
1967 9 18 12 23.5 145.4 992 0 9 -- Chart
1967 9 18 18 23.2 145.4 992 0 9 -- Chart
1967 9 19 00 23.3 145.0 992 0 9 -- Chart
1967 9 19 06 23.5 144.0 992 0 9 -- Chart
1967 9 19 12 23.7 143.3 988 0 9 -- Chart
1967 9 19 18 23.2 142.7 974 0 9 -- Chart
1967 9 20 00 22.3 142.7 970 0 9 -- Chart
1967 9 20 06 22.3 142.4 968 0 9 -- Chart
1967 9 20 12 22.3 142.3 966 0 9 -- Chart
1967 9 20 18 22.3 141.9 964 0 9 -- Chart
1967 9 21 00 22.5 142.2 962 0 9 -- Chart
1967 9 21 06 22.7 142.7 962 0 9 -- Chart
1967 9 21 12 23.1 143.0 964 0 9 -- Chart
1967 9 21 18 23.7 143.1 968 0 9 -- Chart
1967 9 22 00 24.2 143.3 968 0 9 -- Chart
1967 9 22 06 24.7 143.6 966 0 9 -- Chart
1967 9 22 12 25.4 143.8 966 0 9 -- Chart
1967 9 22 18 26.3 144.0 965 0 9 -- Chart
1967 9 23 00 27.3 143.8 964 0 9 -- Chart
1967 9 23 06 28.5 143.6 964 0 9 -- Chart
1967 9 23 12 29.9 144.2 965 0 9 -- Chart
1967 9 23 18 31.4 144.6 966 0 9 -- Chart
1967 9 24 00 33.2 145.3 966 0 9 -- Chart
1967 9 24 06 35.5 147.2 966 0 9 -- Chart
1967 9 24 12 38.4 149.8 970 0 9 -- Chart
1967 9 24 18 41.7 152.4 986 0 9 -- Chart
1967 9 25 00 46.0 156.0 990 0 6 -- Chart
1967 9 25 06 45.6 158.5 990 0 6 -- Chart
1967 9 25 12 46.3 164.4 984 0 6 -- Chart
1967 9 25 18 46.5 166.5 982 0 6 -- Chart
1967 9 26 00 47.0 169.0 982 0 6 -- Chart
1967 9 26 06 47.0 172.0 982 0 6 -- Chart
1967 9 26 12 46.0 176.0 982 0 6 -- Chart
Japan Meteorological Agency Best Track Data | Correction Date : 1989-06-01
< Typhoon 196727 1967 Season Typhoon 196729 >

Help